createdAt,value
2019-03-26T00:03:05.457Z,62.90
2019-03-26T00:07:11.225Z,62.50
2019-03-26T00:11:16.935Z,66.40
2019-03-26T00:15:22.646Z,66.00
2019-03-26T00:19:28.340Z,67.10
2019-03-26T00:23:34.025Z,65.00
2019-03-26T00:27:39.713Z,62.00
2019-03-26T00:31:45.476Z,61.50
2019-03-26T00:35:51.170Z,62.30
2019-03-26T00:39:57.239Z,67.80
2019-03-26T00:44:02.946Z,62.70
2019-03-26T00:48:08.647Z,65.90
2019-03-26T00:52:14.354Z,62.70
2019-03-26T00:56:20.139Z,62.00
2019-03-26T01:00:38.114Z,68.90
2019-03-26T01:04:43.881Z,67.00
2019-03-26T01:08:49.574Z,62.70
2019-03-26T01:12:55.754Z,63.70
2019-03-26T01:17:01.563Z,64.40
2019-03-26T01:21:07.403Z,66.20
2019-03-26T01:25:13.077Z,62.50
2019-03-26T01:29:18.767Z,65.10
2019-03-26T01:33:24.499Z,66.80
2019-03-26T01:37:30.206Z,62.80
2019-03-26T01:41:35.896Z,62.50
2019-03-26T01:45:41.589Z,66.00
2019-03-26T01:49:47.281Z,66.50
2019-03-26T01:53:52.977Z,67.50
2019-03-26T01:57:58.894Z,63.60
2019-03-26T02:02:04.636Z,64.20
2019-03-26T02:06:10.363Z,64.80
2019-03-26T02:10:16.070Z,63.90
2019-03-26T02:14:21.778Z,66.50
2019-03-26T02:18:27.492Z,66.00
2019-03-26T02:22:33.172Z,65.50
2019-03-26T02:26:38.865Z,69.10
2019-03-26T02:30:44.553Z,69.40
2019-03-26T02:34:50.415Z,67.30
2019-03-26T02:38:56.323Z,62.60
2019-03-26T02:43:01.996Z,65.20
2019-03-26T02:47:07.699Z,63.70
2019-03-26T02:51:13.363Z,69.00
2019-03-26T02:55:19.116Z,62.70
2019-03-26T02:59:24.801Z,64.70
2019-03-26T03:03:30.534Z,64.40
2019-03-26T03:07:36.323Z,64.30
2019-03-26T03:11:42.012Z,70.50
2019-03-26T03:15:47.744Z,69.70
2019-03-26T03:19:53.472Z,67.30
2019-03-26T03:23:59.409Z,65.30
2019-03-26T03:28:05.087Z,72.50
2019-03-26T03:32:10.783Z,65.50
2019-03-26T03:36:16.492Z,64.00
2019-03-26T03:40:22.191Z,68.50
2019-03-26T03:44:27.888Z,69.90
2019-03-26T03:48:36.506Z,67.30
2019-03-26T03:52:43.029Z,63.70
2019-03-26T03:56:53.194Z,69.40
2019-03-26T04:00:59.109Z,66.30
2019-03-26T04:05:06.595Z,68.00
2019-03-26T04:09:12.303Z,62.50
2019-03-26T04:13:18.005Z,67.00
2019-03-26T04:17:23.701Z,68.00
2019-03-26T04:21:29.384Z,63.40
2019-03-26T04:25:35.108Z,65.80
2019-03-26T04:29:40.812Z,61.90
2019-03-26T04:33:46.601Z,67.10
2019-03-26T04:37:52.566Z,66.00
2019-03-26T04:41:59.455Z,63.70
2019-03-26T04:46:05.235Z,64.40
2019-03-26T04:50:11.238Z,65.80
2019-03-26T04:54:16.926Z,67.70
2019-03-26T04:58:22.606Z,68.10
2019-03-26T05:02:28.360Z,73.10
2019-03-26T05:06:38.324Z,65.20
2019-03-26T05:10:41.580Z,65.30
2019-03-26T05:14:47.277Z,63.40
2019-03-26T05:18:54.015Z,67.90
2019-03-26T05:22:59.786Z,67.40
2019-03-26T05:27:05.481Z,63.00
2019-03-26T05:31:11.227Z,64.60
2019-03-26T05:35:17.075Z,68.70
2019-03-26T05:39:22.749Z,65.60
2019-03-26T05:43:28.459Z,65.40
2019-03-26T05:47:34.140Z,69.60
2019-03-26T05:51:39.828Z,68.40
2019-03-26T05:55:45.520Z,63.60
2019-03-26T05:59:51.262Z,62.80
2019-03-26T06:03:57.064Z,63.20
2019-03-26T06:08:02.758Z,63.80
2019-03-26T06:12:08.517Z,68.90
2019-03-26T06:16:14.203Z,66.20
2019-03-26T06:20:20.270Z,69.00
2019-03-26T06:24:28.567Z,70.30
2019-03-26T06:28:34.320Z,64.50
2019-03-26T06:32:43.574Z,67.60
2019-03-26T06:36:49.315Z,66.10
2019-03-26T06:40:55.003Z,66.00
2019-03-26T06:45:00.868Z,69.00
2019-03-26T06:49:06.560Z,68.80
2019-03-26T06:53:12.247Z,69.30
2019-03-26T06:57:18.005Z,67.40
2019-03-26T07:01:23.705Z,67.20
2019-03-26T07:05:29.404Z,63.70
2019-03-26T07:09:35.107Z,66.60
2019-03-26T07:13:40.812Z,66.50
2019-03-26T07:17:46.527Z,67.30
2019-03-26T07:21:52.230Z,66.40
2019-03-26T07:25:59.668Z,65.30
2019-03-26T07:30:10.182Z,65.20
2019-03-26T07:34:15.940Z,63.40
2019-03-26T07:38:21.784Z,63.10
2019-03-26T07:42:27.498Z,62.30
2019-03-26T07:46:33.291Z,64.00
2019-03-26T07:50:40.538Z,61.70
2019-03-26T07:54:46.220Z,62.90
2019-03-26T07:58:51.919Z,62.30
2019-03-26T08:02:59.058Z,63.50
2019-03-26T08:07:04.827Z,64.30
2019-03-26T08:11:10.539Z,63.60
2019-03-26T08:15:16.301Z,62.90
2019-03-26T08:19:21.973Z,64.90
2019-03-26T08:23:27.710Z,62.10
2019-03-26T08:27:33.436Z,60.40
2019-03-26T08:31:39.210Z,60.40
2019-03-26T08:35:44.895Z,60.60
2019-03-26T08:39:52.399Z,63.00
2019-03-26T08:43:58.202Z,62.00
2019-03-26T08:48:04.063Z,62.10
2019-03-26T08:52:09.782Z,60.20
2019-03-26T08:56:15.502Z,57.90
2019-03-26T09:00:22.315Z,59.20
2019-03-26T09:04:28.013Z,57.90
2019-03-26T09:08:33.689Z,56.70
2019-03-26T09:12:39.789Z,55.60
2019-03-26T09:16:45.674Z,54.80
2019-03-26T09:20:51.514Z,50.40
2019-03-26T09:24:57.418Z,48.60
2019-03-26T09:29:03.137Z,47.40
2019-03-26T09:33:08.835Z,46.50
2019-03-26T09:37:14.532Z,47.60
2019-03-26T09:41:20.337Z,46.60
2019-03-26T09:45:26.092Z,46.90
2019-03-26T09:49:31.790Z,52.80
2019-03-26T09:53:37.600Z,50.10
2019-03-26T09:57:43.298Z,54.70
2019-03-26T10:01:48.995Z,51.50
2019-03-26T10:05:54.691Z,51.30
2019-03-26T10:10:00.472Z,51.60
2019-03-26T10:14:06.275Z,52.50
2019-03-26T10:18:11.982Z,53.90
2019-03-26T10:22:20.018Z,51.20
2019-03-26T10:26:25.193Z,49.70
2019-03-26T10:30:39.793Z,53.40
2019-03-26T10:34:45.449Z,48.60
2019-03-26T10:38:51.147Z,50.60
2019-03-26T10:42:56.991Z,45.80
2019-03-26T10:47:02.847Z,44.50
2019-03-26T10:51:08.584Z,39.50
2019-03-26T10:55:15.279Z,32.10
2019-03-26T10:59:21.127Z,28.70
2019-03-26T11:03:33.955Z,29.30
2019-03-26T11:07:42.546Z,32.10
2019-03-26T11:11:47.179Z,34.40
2019-03-26T11:15:52.878Z,37.80
2019-03-26T11:19:58.670Z,38.30
2019-03-26T11:24:04.734Z,40.60
2019-03-26T11:28:10.500Z,37.30
2019-03-26T11:32:16.177Z,36.20
2019-03-26T11:36:21.877Z,34.40
2019-03-26T11:40:27.633Z,36.30
2019-03-26T11:44:33.335Z,38.60
2019-03-26T11:48:39.122Z,41.60
2019-03-26T11:52:44.875Z,38.90
2019-03-26T11:56:50.683Z,38.40
2019-03-26T12:00:56.471Z,40.70
2019-03-26T12:05:02.239Z,37.00
2019-03-26T12:09:09.028Z,40.20
2019-03-26T12:13:14.706Z,41.30
2019-03-26T12:17:20.411Z,39.00
2019-03-26T12:21:26.104Z,35.20
2019-03-26T12:25:31.792Z,31.90
2019-03-26T12:29:37.499Z,29.90
2019-03-26T12:33:43.185Z,29.10
2019-03-26T12:37:48.931Z,29.30
2019-03-26T12:41:54.691Z,27.40
2019-03-26T12:46:02.024Z,29.30
2019-03-26T12:50:09.566Z,27.10
2019-03-26T12:54:15.275Z,27.70
2019-03-26T12:58:31.217Z,31.30
2019-03-26T13:02:29.436Z,31.20
2019-03-26T13:06:35.405Z,28.00
2019-03-26T13:10:52.740Z,26.70
2019-03-26T13:14:48.574Z,27.50
2019-03-26T13:18:54.258Z,27.70
2019-03-26T13:23:00.074Z,26.10
2019-03-26T13:27:05.817Z,26.80
2019-03-26T13:31:11.514Z,29.10
2019-03-26T13:35:17.546Z,28.90
2019-03-26T13:39:23.239Z,28.30
2019-03-26T13:43:28.936Z,27.10
2019-03-26T13:47:34.606Z,25.80
2019-03-26T13:51:40.310Z,27.20
2019-03-26T13:55:46.002Z,29.70
2019-03-26T13:59:51.764Z,32.10
2019-03-26T14:03:57.460Z,31.30
2019-03-26T14:08:03.275Z,29.60
2019-03-26T14:12:08.987Z,26.30
2019-03-26T14:16:14.686Z,28.10
2019-03-26T14:20:20.804Z,31.00
2019-03-26T14:24:26.438Z,28.90
2019-03-26T14:28:32.129Z,32.00
2019-03-26T14:32:37.825Z,32.60
2019-03-26T14:36:43.545Z,32.10
2019-03-26T14:40:55.057Z,31.10
2019-03-26T14:44:56.788Z,28.10
2019-03-26T14:49:02.533Z,29.50
2019-03-26T14:53:08.234Z,28.60
2019-03-26T14:57:13.928Z,29.30
2019-03-26T15:01:19.625Z,28.60
2019-03-26T15:05:25.408Z,26.60
2019-03-26T15:09:31.196Z,25.90
2019-03-26T15:13:36.879Z,31.30
2019-03-26T15:17:42.594Z,32.30
2019-03-26T15:21:48.293Z,32.00
2019-03-26T15:25:53.968Z,33.90
2019-03-26T15:30:01.371Z,34.00
2019-03-26T15:34:07.142Z,32.40
2019-03-26T15:38:12.908Z,32.80
2019-03-26T15:42:18.600Z,37.00
2019-03-26T15:46:24.305Z,36.00
2019-03-26T15:50:44.947Z,37.10
2019-03-26T15:54:50.645Z,37.70
2019-03-26T15:58:56.338Z,35.70
2019-03-26T16:03:02.180Z,36.40
2019-03-26T16:07:07.932Z,37.10
2019-03-26T16:11:13.626Z,36.80
2019-03-26T16:15:19.343Z,37.40
2019-03-26T16:19:31.987Z,37.40
2019-03-26T16:23:32.438Z,36.30
2019-03-26T16:27:38.134Z,36.00
2019-03-26T16:31:43.821Z,37.80
2019-03-26T16:36:16.637Z,38.20
2019-03-26T16:40:22.449Z,38.60
2019-03-26T16:44:28.168Z,38.20
2019-03-26T16:48:34.833Z,41.50
2019-03-26T16:52:40.601Z,40.50
2019-03-26T16:56:46.298Z,40.10
2019-03-26T17:00:52.983Z,42.20
2019-03-26T17:04:58.735Z,39.30
2019-03-26T17:09:19.655Z,41.30
2019-03-26T17:13:25.504Z,40.50
2019-03-26T17:17:31.289Z,42.70
2019-03-26T17:21:36.981Z,39.40
2019-03-26T17:25:42.686Z,42.00
2019-03-26T17:29:48.416Z,43.20
2019-03-26T17:33:54.095Z,38.90
2019-03-26T17:38:00.535Z,41.30
2019-03-26T17:42:17.026Z,39.80
2019-03-26T17:46:15.729Z,38.60
2019-03-26T17:50:21.509Z,40.00
2019-03-26T17:54:27.228Z,43.60
2019-03-26T17:58:32.926Z,39.60
2019-03-26T18:02:38.673Z,43.20
2019-03-26T18:06:44.379Z,44.00
2019-03-26T18:10:50.132Z,38.10
2019-03-26T18:14:55.842Z,42.30
2019-03-26T18:19:01.833Z,42.70
2019-03-26T18:23:07.588Z,39.00
2019-03-26T18:27:13.350Z,38.50
2019-03-26T18:36:06.746Z,43.70
2019-03-26T18:40:12.775Z,41.80
2019-03-26T18:44:19.443Z,42.50
2019-03-26T18:48:25.166Z,40.70
2019-03-26T18:52:30.870Z,39.00
2019-03-26T18:56:37.533Z,42.50
2019-03-26T19:00:43.269Z,40.40
2019-03-26T19:05:19.065Z,46.50
2019-03-26T19:09:24.775Z,41.00
2019-03-26T19:18:20.471Z,42.00
2019-03-26T19:22:26.193Z,45.00
2019-03-26T19:26:31.887Z,40.00
2019-03-26T19:30:37.671Z,42.10
2019-03-26T19:34:43.419Z,42.30
2019-03-26T19:39:18.904Z,42.10
2019-03-26T19:43:24.713Z,44.30
2019-03-26T19:47:30.495Z,41.10
2019-03-26T19:52:18.067Z,41.50
2019-03-26T19:56:23.824Z,44.30
2019-03-26T20:00:29.535Z,44.20
2019-03-26T20:04:36.284Z,42.90
2019-03-26T20:13:24.616Z,42.30
2019-03-26T20:17:27.722Z,39.50
2019-03-26T20:22:18.369Z,40.40
2019-03-26T20:26:24.060Z,45.30
2019-03-26T20:30:29.756Z,44.00
2019-03-26T20:35:17.503Z,43.70
2019-03-26T20:39:23.278Z,46.10
2019-03-26T20:43:37.264Z,45.20
2019-03-26T20:47:36.491Z,43.30
2019-03-26T20:51:42.267Z,45.40
2019-03-26T20:55:54.182Z,48.10
2019-03-26T20:59:55.724Z,49.20
2019-03-26T21:04:01.712Z,48.50
2019-03-26T21:08:07.834Z,43.30
2019-03-26T21:12:13.540Z,42.20
2019-03-26T21:16:19.332Z,44.60
2019-03-26T21:20:25.024Z,39.70
2019-03-26T21:24:30.821Z,40.90
2019-03-26T21:28:36.548Z,45.90
2019-03-26T21:32:42.322Z,47.00
2019-03-26T21:37:17.902Z,49.10
2019-03-26T21:41:23.761Z,47.20
2019-03-26T21:45:37.406Z,48.30
2019-03-26T21:49:43.236Z,45.50
2019-03-26T21:53:48.922Z,46.90
2019-03-26T21:57:54.667Z,47.90
2019-03-26T22:02:01.592Z,42.90
2019-03-26T22:06:07.279Z,51.60
2019-03-26T22:10:13.420Z,49.10
2019-03-26T22:14:19.110Z,47.40
2019-03-26T22:18:24.832Z,44.80
2019-03-26T22:22:32.174Z,43.20
2019-03-26T22:26:37.859Z,45.40
2019-03-26T22:30:43.642Z,47.10
2019-03-26T22:34:49.303Z,46.40
2019-03-26T22:38:55.009Z,50.10
2019-03-26T22:43:00.835Z,51.50
2019-03-26T22:47:06.732Z,47.40
2019-03-26T22:51:12.509Z,43.80
2019-03-26T22:55:18.189Z,43.90
2019-03-26T23:06:17.077Z,52.10
2019-03-26T23:11:17.241Z,48.10
2019-03-26T23:15:27.745Z,49.20
2019-03-26T23:20:18.570Z,48.60
2019-03-26T23:24:42.558Z,53.60
2019-03-26T23:28:48.256Z,50.10
2019-03-26T23:32:53.974Z,52.20
2019-03-26T23:36:59.716Z,48.40
2019-03-26T23:41:05.604Z,50.10
2019-03-26T23:45:12.054Z,52.50
2019-03-26T23:49:17.745Z,52.10
2019-03-26T23:53:23.444Z,50.90
2019-03-26T23:57:29.147Z,49.60
